Hlavní strana
METAR-TAF:

METAR-TAF

Letiště :

Bermudy, Bermudy

zeměpisná šířka: 32-22N, zeměpisná délka: 064-41W, výška: 6 m

Aktuální stav počasí

Zpráva byla vytvořena před 40 minutami, v 17:55 UTC
Západní vítr 12 kt
Teplota 21°C
Vlhkost vzduchu 56%
Tlak 1024 hPa
Viditelnost 10 km a více
Skoro jasno ve výšce 4000 ft
Skoro jasno ve výšce 30000 ft

METAR: TXKF 211755Z 26012KT 9999 FEW040 FEW300 21/12 Q1024

Čas: 14:35 (18:35 UTC)

Předpověď počasí

Zpráva byla vytvořena před 1 hodinou a 4 minutami, v 17:31 UTC
Předpověď platná od 21 v 18 UTC do 22 v 18 UTC
Západní vítr 10 kt
Viditelnost 10 km a více
Skoro jasno ve výšce 4000 ft

TAF: TXKF 211731Z 2118/2218 26010KT 9999 FEW040

Stav a předpovědi počasí z více než 4 000 letišť (zprávy METAR a TAF).

Červené a žluté tečky na mapě představují dostupné meteorologické stanice.

Když kurzor umístíte na tečku, zobrazí se název stanice.

Pak kliknutím zobrazíte stav a předpověď počasí.

Chcete-li změnit mapu, kliknutím na zelené tlačítko se znaménkem +mapu přiblížíte, kliknutím na zelené tlačítko se znaménkem – mapu oddálíte a kliknutím na zelené šipky přejdete na sousední mapy.


METAR-TAF: